createdAt,value
2019-01-26T00:01:11.027Z,75.47
2019-01-26T00:03:44.810Z,75.51
2019-01-26T00:06:16.482Z,75.68
2019-01-26T00:08:49.304Z,75.46
2019-01-26T00:11:20.612Z,75.58
2019-01-26T00:13:54.628Z,75.51
2019-01-26T00:16:25.837Z,75.30
2019-01-26T00:18:59.690Z,75.20
2019-01-26T00:21:31.660Z,75.14
2019-01-26T00:24:05.989Z,74.77
2019-01-26T00:26:38.862Z,74.45
2019-01-26T00:29:10.308Z,74.42
2019-01-26T00:31:43.729Z,74.22
2019-01-26T00:34:18.113Z,74.11
2019-01-26T00:36:51.825Z,73.93
2019-01-26T00:39:26.210Z,74.18
2019-01-26T00:41:59.866Z,73.90
2019-01-26T00:44:31.205Z,74.02
2019-01-26T00:47:02.492Z,73.57
2019-01-26T00:49:36.229Z,73.50
2019-01-26T00:52:09.852Z,73.34
2019-01-26T00:54:41.741Z,73.16
2019-01-26T00:57:13.585Z,72.99
2019-01-26T00:59:46.062Z,72.92
2019-01-26T01:02:17.947Z,72.76
2019-01-26T01:04:50.950Z,72.43
2019-01-26T01:07:23.875Z,72.74
2019-01-26T01:09:55.384Z,72.63
2019-01-26T01:12:26.739Z,72.56
2019-01-26T01:14:59.955Z,72.67
2019-01-26T01:17:33.763Z,72.55
2019-01-26T01:20:06.299Z,72.23
2019-01-26T01:22:37.501Z,72.25
2019-01-26T01:25:12.186Z,72.30
2019-01-26T01:27:44.126Z,72.26
2019-01-26T01:30:19.926Z,72.61
2019-01-26T01:32:51.982Z,72.63
2019-01-26T01:35:25.376Z,72.31
2019-01-26T01:37:59.940Z,72.14
2019-01-26T01:40:34.379Z,72.03
2019-01-26T01:43:07.150Z,71.36
2019-01-26T01:45:38.458Z,71.80
2019-01-26T01:48:11.949Z,71.51
2019-01-26T01:50:47.376Z,71.46
2019-01-26T01:53:22.964Z,71.40
2019-01-26T01:55:54.184Z,71.16
2019-01-26T01:58:28.152Z,71.14
2019-01-26T02:01:00.983Z,71.12
2019-01-26T02:03:33.129Z,71.06
2019-01-26T02:06:10.052Z,71.36
2019-01-26T02:08:43.433Z,70.94
2019-01-26T02:11:15.342Z,71.22
2019-01-26T02:13:49.199Z,71.03
2019-01-26T02:16:22.742Z,71.20
2019-01-26T02:18:56.359Z,71.25
2019-01-26T02:21:30.186Z,71.30
2019-01-26T02:24:04.232Z,71.49
2019-01-26T02:26:37.161Z,71.85
2019-01-26T02:29:09.203Z,71.70
2019-01-26T02:31:42.020Z,71.15
2019-01-26T02:34:15.288Z,71.17
2019-01-26T02:36:46.530Z,70.60
2019-01-26T02:39:18.529Z,71.09
2019-01-26T02:41:52.964Z,70.89
2019-01-26T02:44:28.942Z,71.24
2019-01-26T02:47:00.454Z,71.50
2019-01-26T02:49:35.908Z,71.37
2019-01-26T02:52:08.460Z,71.14
2019-01-26T02:54:42.750Z,71.40
2019-01-26T02:57:16.431Z,71.09
2019-01-26T02:59:49.193Z,71.29
2019-01-26T03:02:21.005Z,71.19
2019-01-26T03:04:52.295Z,71.48
2019-01-26T03:07:25.156Z,71.13
2019-01-26T03:09:59.106Z,70.89
2019-01-26T03:12:30.401Z,71.06
2019-01-26T03:15:05.000Z,71.48
2019-01-26T03:17:36.559Z,71.42
2019-01-26T03:20:10.981Z,71.63
2019-01-26T03:22:43.900Z,71.71
2019-01-26T03:25:19.301Z,71.49
2019-01-26T03:27:51.534Z,71.22
2019-01-26T03:30:25.704Z,71.26
2019-01-26T03:32:59.561Z,71.19
2019-01-26T03:35:35.022Z,70.96
2019-01-26T03:38:07.434Z,70.60
2019-01-26T03:40:38.645Z,70.16
2019-01-26T03:43:12.139Z,70.06
2019-01-26T03:45:43.561Z,69.92
2019-01-26T03:48:15.583Z,70.16
2019-01-26T03:50:47.469Z,70.19
2019-01-26T03:53:18.820Z,69.77
2019-01-26T03:55:52.685Z,70.19
2019-01-26T03:58:24.680Z,69.78
2019-01-26T04:00:58.019Z,70.09
2019-01-26T04:03:30.224Z,70.10
2019-01-26T04:06:02.824Z,70.49
2019-01-26T04:08:36.695Z,70.73
2019-01-26T04:11:12.130Z,70.41
2019-01-26T04:13:47.243Z,70.26
2019-01-26T04:16:18.461Z,70.20
2019-01-26T04:18:51.238Z,70.48
2019-01-26T04:21:23.588Z,70.72
2019-01-26T04:23:56.795Z,70.87
2019-01-26T04:26:32.410Z,71.16
2019-01-26T04:29:05.848Z,71.54
2019-01-26T04:31:38.698Z,71.84
2019-01-26T04:34:09.966Z,71.87
2019-01-26T04:36:41.202Z,72.27
2019-01-26T04:39:12.491Z,72.42
2019-01-26T04:41:45.649Z,72.66
2019-01-26T04:44:16.858Z,72.83
2019-01-26T04:46:49.648Z,72.92
2019-01-26T04:49:21.847Z,73.39
2019-01-26T04:51:53.775Z,73.67
2019-01-26T04:54:26.964Z,73.93
2019-01-26T04:56:59.256Z,74.48
2019-01-26T04:59:32.039Z,75.06
2019-01-26T05:02:05.831Z,75.42
2019-01-26T05:04:39.812Z,75.66
2019-01-26T05:07:11.096Z,75.76
2019-01-26T05:09:44.970Z,76.04
2019-01-26T05:12:16.183Z,76.18
2019-01-26T05:14:49.940Z,76.40
2019-01-26T05:17:21.935Z,76.72
2019-01-26T05:19:54.915Z,77.05
2019-01-26T05:22:28.719Z,77.41
2019-01-26T05:24:59.905Z,77.31
2019-01-26T05:27:34.013Z,77.48
2019-01-26T05:30:12.299Z,78.00
2019-01-26T05:32:44.896Z,78.00
2019-01-26T05:35:19.046Z,78.34
2019-01-26T05:37:50.229Z,78.48
2019-01-26T05:40:21.424Z,77.77
2019-01-26T05:42:55.170Z,77.69
2019-01-26T05:45:30.840Z,77.58
2019-01-26T05:48:03.221Z,77.57
2019-01-26T05:50:35.583Z,77.67
2019-01-26T05:53:08.268Z,77.22
2019-01-26T05:55:40.156Z,77.23
2019-01-26T05:58:12.126Z,76.74
2019-01-26T06:00:44.478Z,76.54
2019-01-26T06:03:18.533Z,76.57
2019-01-26T06:05:52.235Z,76.58
2019-01-26T06:08:27.795Z,76.87
2019-01-26T06:11:00.338Z,76.79
2019-01-26T06:13:35.137Z,77.29
2019-01-26T06:16:10.698Z,77.77
2019-01-26T06:18:43.421Z,78.20
2019-01-26T06:21:17.336Z,78.47
2019-01-26T06:23:49.142Z,78.54
2019-01-26T06:26:21.242Z,78.64
2019-01-26T06:28:54.943Z,78.61
2019-01-26T06:31:27.740Z,78.57
2019-01-26T06:33:59.192Z,78.80
2019-01-26T06:36:33.247Z,79.09
2019-01-26T06:39:08.436Z,79.37
2019-01-26T06:41:41.394Z,79.81
2019-01-26T06:44:12.983Z,80.39
2019-01-26T06:46:46.435Z,80.52
2019-01-26T06:49:17.951Z,80.50
2019-01-26T06:51:54.679Z,80.50
2019-01-26T06:54:28.464Z,80.81
2019-01-26T06:56:59.696Z,81.02
2019-01-26T06:59:31.378Z,81.14
2019-01-26T07:02:06.097Z,81.79
2019-01-26T07:04:45.777Z,82.03
2019-01-26T07:07:20.234Z,81.89
2019-01-26T07:09:53.687Z,82.13
2019-01-26T07:12:26.089Z,82.26
2019-01-26T07:14:57.292Z,82.74
2019-01-26T07:17:28.561Z,82.56
2019-01-26T07:20:03.682Z,82.84
2019-01-26T07:22:36.459Z,83.19
2019-01-26T07:25:10.521Z,82.81
2019-01-26T07:27:44.595Z,82.70
2019-01-26T07:30:20.038Z,82.69
2019-01-26T07:32:51.512Z,82.78
2019-01-26T07:35:25.560Z,82.65
2019-01-26T07:37:59.541Z,82.89
2019-01-26T07:40:33.570Z,83.33
2019-01-26T07:43:10.252Z,83.14
2019-01-26T07:45:44.740Z,83.17
2019-01-26T07:48:18.724Z,83.71
2019-01-26T07:50:52.550Z,83.55
2019-01-26T07:53:24.730Z,84.29
2019-01-26T07:55:57.713Z,84.31
2019-01-26T07:58:28.958Z,84.82
2019-01-26T08:01:02.764Z,85.03
2019-01-26T08:03:36.689Z,84.45
2019-01-26T08:06:11.412Z,84.62
2019-01-26T08:08:44.671Z,84.68
2019-01-26T08:11:18.483Z,85.25
2019-01-26T08:13:49.695Z,85.44
2019-01-26T08:16:22.743Z,85.55
2019-01-26T08:18:54.943Z,85.40
2019-01-26T08:21:27.833Z,85.59
2019-01-26T08:24:01.873Z,85.43
2019-01-26T08:26:34.853Z,85.70
2019-01-26T08:29:09.462Z,85.35
2019-01-26T08:31:41.186Z,85.46
2019-01-26T08:34:12.466Z,85.65
2019-01-26T08:36:45.975Z,85.72
2019-01-26T08:39:19.805Z,85.36
2019-01-26T08:41:55.520Z,85.71
2019-01-26T08:44:29.073Z,85.74
2019-01-26T08:47:02.082Z,85.77
2019-01-26T08:49:33.294Z,86.04
2019-01-26T08:52:06.896Z,86.27
2019-01-26T08:54:38.135Z,85.83
2019-01-26T08:57:12.132Z,86.12
2019-01-26T08:59:46.084Z,86.24
2019-01-26T09:02:50.752Z,86.21
2019-01-26T09:05:24.128Z,86.06
2019-01-26T09:07:55.399Z,86.05
2019-01-26T09:10:28.974Z,85.99
2019-01-26T09:13:03.027Z,85.90
2019-01-26T09:15:36.936Z,85.82
2019-01-26T09:18:12.581Z,85.33
2019-01-26T09:20:45.038Z,84.72
2019-01-26T09:23:16.294Z,84.47
2019-01-26T09:25:50.106Z,84.50
2019-01-26T09:28:24.083Z,84.24
2019-01-26T09:30:58.068Z,83.67
2019-01-26T09:33:32.091Z,83.71
2019-01-26T09:36:06.589Z,83.38
2019-01-26T09:38:42.539Z,83.15
2019-01-26T09:41:16.207Z,83.00
2019-01-26T09:43:48.167Z,83.14
2019-01-26T09:46:22.509Z,83.11
2019-01-26T09:48:55.894Z,83.18
2019-01-26T09:51:27.269Z,82.83
2019-01-26T09:54:01.694Z,83.19
2019-01-26T09:56:34.240Z,83.68
2019-01-26T09:59:08.657Z,83.20
2019-01-26T10:01:42.078Z,83.16
2019-01-26T10:04:14.344Z,82.92
2019-01-26T10:06:48.936Z,83.26
2019-01-26T10:09:23.152Z,83.07
2019-01-26T10:11:55.342Z,83.13
2019-01-26T10:14:26.638Z,83.19
2019-01-26T10:17:00.717Z,83.02
2019-01-26T10:19:35.013Z,82.97
2019-01-26T10:22:08.220Z,82.69
2019-01-26T10:24:42.339Z,82.83
2019-01-26T10:27:13.589Z,82.78
2019-01-26T10:29:47.431Z,82.52
2019-01-26T10:32:19.462Z,81.87
2019-01-26T10:34:52.371Z,81.59
2019-01-26T10:37:26.926Z,81.67
2019-01-26T10:40:00.270Z,81.54
2019-01-26T10:42:34.421Z,81.83
2019-01-26T10:45:07.576Z,81.67
2019-01-26T10:47:43.391Z,81.78
2019-01-26T10:50:15.507Z,81.52
2019-01-26T10:52:48.219Z,81.46
2019-01-26T10:55:20.691Z,81.35
2019-01-26T10:57:54.496Z,81.11
2019-01-26T11:00:28.689Z,80.82
2019-01-26T11:03:04.651Z,81.32
2019-01-26T11:05:38.101Z,81.76
2019-01-26T11:08:10.396Z,81.94
2019-01-26T11:10:41.602Z,81.96
2019-01-26T11:13:12.864Z,82.03
2019-01-26T11:15:48.273Z,82.29
2019-01-26T11:18:20.757Z,82.16
2019-01-26T11:20:53.533Z,82.45
2019-01-26T11:23:29.192Z,82.30
2019-01-26T11:26:01.856Z,82.49
2019-01-26T11:28:33.368Z,82.70
2019-01-26T11:31:11.215Z,83.32
2019-01-26T11:33:45.016Z,83.19
2019-01-26T11:36:18.710Z,83.82
2019-01-26T11:38:50.792Z,84.16
2019-01-26T11:41:22.984Z,84.51
2019-01-26T11:43:56.786Z,84.76
2019-01-26T11:46:38.299Z,84.75
2019-01-26T11:49:15.096Z,84.86
2019-01-26T11:51:48.993Z,84.86
2019-01-26T11:54:21.725Z,85.16
2019-01-26T11:56:59.260Z,85.25
2019-01-26T11:59:33.107Z,85.36
2019-01-26T12:02:22.274Z,85.55
2019-01-26T12:05:05.488Z,85.38
2019-01-26T12:07:39.018Z,85.61
2019-01-26T12:10:11.840Z,85.52
2019-01-26T12:12:43.695Z,85.59
2019-01-26T12:15:16.750Z,86.08
2019-01-26T12:17:47.966Z,86.13
2019-01-26T12:20:19.969Z,85.79
2019-01-26T12:22:52.850Z,85.64
2019-01-26T12:25:24.387Z,85.70
2019-01-26T12:27:57.990Z,85.72
2019-01-26T12:30:32.456Z,85.50
2019-01-26T12:33:06.309Z,84.87
2019-01-26T12:35:39.986Z,84.45
2019-01-26T12:38:11.823Z,84.62
2019-01-26T12:40:45.098Z,84.54
2019-01-26T12:43:16.368Z,84.83
2019-01-26T12:45:51.745Z,84.84
2019-01-26T12:48:24.493Z,84.89
2019-01-26T12:50:58.035Z,84.47
2019-01-26T12:53:32.098Z,85.06
2019-01-26T12:56:06.838Z,84.79
2019-01-26T12:58:45.980Z,85.13
2019-01-26T13:01:18.893Z,85.28
2019-01-26T13:03:51.048Z,85.21
2019-01-26T13:06:24.978Z,85.12
2019-01-26T13:08:56.197Z,85.14
2019-01-26T13:11:30.696Z,85.43
2019-01-26T13:14:04.535Z,85.29
2019-01-26T13:16:38.068Z,84.90
2019-01-26T13:19:12.361Z,84.83
2019-01-26T13:21:44.335Z,84.54
2019-01-26T13:24:16.379Z,84.81
2019-01-26T13:26:47.559Z,85.36
2019-01-26T13:29:19.125Z,85.88
2019-01-26T13:31:52.087Z,86.17
2019-01-26T13:34:26.030Z,86.51
2019-01-26T13:37:00.057Z,86.96
2019-01-26T13:39:34.077Z,87.02
2019-01-26T13:42:08.339Z,87.11
2019-01-26T13:44:39.556Z,87.24
2019-01-26T13:47:10.804Z,87.44
2019-01-26T13:49:44.317Z,88.03
2019-01-26T13:52:16.229Z,87.89
2019-01-26T13:54:49.258Z,87.93
2019-01-26T13:57:20.458Z,87.89
2019-01-26T13:59:54.434Z,88.13
2019-01-26T14:02:26.156Z,88.62
2019-01-26T14:04:59.439Z,88.71
2019-01-26T14:07:34.866Z,88.94
2019-01-26T14:10:08.419Z,89.16
2019-01-26T14:12:43.107Z,88.94
2019-01-26T14:15:16.797Z,88.63
2019-01-26T14:17:51.124Z,88.90
2019-01-26T14:20:23.685Z,89.12
2019-01-26T14:22:58.351Z,89.42
2019-01-26T14:25:32.550Z,89.45
2019-01-26T14:28:05.604Z,88.92
2019-01-26T14:30:41.941Z,88.87
2019-01-26T14:33:13.237Z,88.71
2019-01-26T14:35:44.681Z,88.22
2019-01-26T14:38:18.392Z,88.34
2019-01-26T14:40:49.737Z,88.55
2019-01-26T14:43:23.351Z,88.47
2019-01-26T14:45:54.547Z,88.31
2019-01-26T14:48:29.377Z,88.64
2019-01-26T14:51:03.084Z,88.78
2019-01-26T14:53:36.102Z,88.62
2019-01-26T14:56:07.270Z,88.52
2019-01-26T14:58:43.593Z,88.90
2019-01-26T15:01:16.602Z,89.07
2019-01-26T15:03:48.596Z,89.35
2019-01-26T15:06:22.591Z,89.19
2019-01-26T15:08:58.100Z,89.44
2019-01-26T15:11:30.621Z,89.42
2019-01-26T15:14:06.160Z,89.22
2019-01-26T15:16:40.362Z,88.97
2019-01-26T15:19:12.845Z,88.89
2019-01-26T15:21:46.814Z,88.81
2019-01-26T15:24:18.052Z,88.96
2019-01-26T15:26:53.432Z,88.86
2019-01-26T15:29:27.364Z,88.94
2019-01-26T15:31:59.803Z,88.96
2019-01-26T15:34:31.738Z,88.89
2019-01-26T15:37:04.677Z,88.86
2019-01-26T15:39:38.622Z,89.07
2019-01-26T15:42:09.836Z,88.88
2019-01-26T15:44:43.678Z,89.16
2019-01-26T15:47:16.807Z,89.28
2019-01-26T15:49:48.960Z,88.83
2019-01-26T15:52:21.849Z,89.04
2019-01-26T15:54:53.651Z,89.32
2019-01-26T15:57:27.650Z,88.90
2019-01-26T16:00:03.165Z,89.14
2019-01-26T16:02:35.660Z,88.59
2019-01-26T16:05:09.229Z,88.83
2019-01-26T16:07:42.872Z,88.91
2019-01-26T16:10:20.544Z,88.91
2019-01-26T16:12:53.533Z,88.84
2019-01-26T16:15:28.173Z,88.93
2019-01-26T16:18:02.521Z,88.71
2019-01-26T16:20:35.973Z,88.91
2019-01-26T16:23:09.987Z,89.17
2019-01-26T16:25:41.193Z,89.29
2019-01-26T16:28:12.413Z,89.51
2019-01-26T16:30:43.625Z,89.98
2019-01-26T16:33:17.183Z,89.51
2019-01-26T16:35:48.976Z,89.36
2019-01-26T16:38:22.185Z,89.33
2019-01-26T16:40:55.926Z,89.10
2019-01-26T16:43:29.918Z,89.43
2019-01-26T16:46:04.292Z,89.40
2019-01-26T16:48:37.077Z,89.24
2019-01-26T16:51:10.718Z,89.10
2019-01-26T16:53:43.868Z,89.19
2019-01-26T16:56:16.838Z,89.53
2019-01-26T16:58:53.113Z,89.64
2019-01-26T17:01:24.815Z,90.00
2019-01-26T17:03:57.595Z,90.19
2019-01-26T17:06:29.995Z,89.56
2019-01-26T17:09:04.951Z,90.22
2019-01-26T17:11:38.178Z,89.96
2019-01-26T17:14:11.081Z,89.90
2019-01-26T17:16:45.091Z,89.79
2019-01-26T17:19:16.641Z,90.01
2019-01-26T17:21:47.890Z,89.66
2019-01-26T17:24:21.230Z,89.62
2019-01-26T17:26:55.235Z,90.43
2019-01-26T17:29:29.210Z,90.23
2019-01-26T17:32:04.738Z,90.37
2019-01-26T17:34:37.934Z,90.25
2019-01-26T17:37:11.419Z,90.13
2019-01-26T17:39:45.277Z,90.28
2019-01-26T17:42:18.044Z,89.93
2019-01-26T17:44:50.144Z,89.71
2019-01-26T17:47:22.610Z,90.07
2019-01-26T17:49:55.148Z,90.11
2019-01-26T17:52:27.381Z,89.90
2019-01-26T17:55:00.385Z,89.73
2019-01-26T17:57:31.589Z,89.83
2019-01-26T18:00:02.894Z,90.24
2019-01-26T18:02:36.404Z,90.16
2019-01-26T18:05:11.030Z,89.56
2019-01-26T18:07:44.427Z,90.15
2019-01-26T18:10:18.070Z,90.32
2019-01-26T18:12:50.375Z,90.38
2019-01-26T18:15:23.389Z,90.57
2019-01-26T18:17:54.584Z,89.98
2019-01-26T18:20:27.001Z,89.81
2019-01-26T18:23:00.864Z,90.23
2019-01-26T18:25:37.014Z,90.34
2019-01-26T18:28:10.503Z,90.79
2019-01-26T18:30:44.622Z,90.16
2019-01-26T18:33:15.823Z,90.64
2019-01-26T18:35:49.478Z,90.89
2019-01-26T18:38:23.333Z,90.80
2019-01-26T18:40:54.644Z,91.02
2019-01-26T18:43:28.416Z,91.06
2019-01-26T18:45:59.688Z,90.81
2019-01-26T18:48:33.195Z,90.92
2019-01-26T18:51:06.538Z,91.24
2019-01-26T18:53:38.424Z,91.19
2019-01-26T18:56:11.535Z,90.68
2019-01-26T18:58:45.525Z,90.50
2019-01-26T19:01:19.556Z,90.58
2019-01-26T19:04:20.392Z,90.89
2019-01-26T19:06:51.614Z,90.73
2019-01-26T19:09:22.841Z,90.44
2019-01-26T19:11:56.621Z,90.41
2019-01-26T19:14:30.820Z,90.52
2019-01-26T19:17:02.057Z,90.83
2019-01-26T19:19:33.308Z,90.51
2019-01-26T19:22:08.441Z,90.96
2019-01-26T19:24:40.771Z,91.24
2019-01-26T19:27:13.610Z,91.12
2019-01-26T19:29:45.736Z,91.10
2019-01-26T19:32:21.358Z,91.22
2019-01-26T19:34:54.848Z,90.93
2019-01-26T19:37:29.449Z,90.27
2019-01-26T19:40:01.901Z,90.49
2019-01-26T19:42:35.830Z,90.78
2019-01-26T19:45:11.119Z,91.14
2019-01-26T19:47:42.682Z,91.00
2019-01-26T19:50:16.961Z,90.59
2019-01-26T19:52:51.924Z,90.35
2019-01-26T19:55:25.808Z,90.43
2019-01-26T19:58:00.322Z,90.29
2019-01-26T20:00:33.086Z,90.16
2019-01-26T20:03:06.762Z,89.87
2019-01-26T20:05:40.973Z,90.23
2019-01-26T20:08:13.260Z,90.17
2019-01-26T20:10:44.962Z,90.50
2019-01-26T20:13:16.993Z,90.76
2019-01-26T20:15:49.862Z,90.40
2019-01-26T20:18:21.876Z,90.30
2019-01-26T20:20:54.053Z,90.12
2019-01-26T20:23:26.015Z,89.81
2019-01-26T20:25:57.526Z,89.37
2019-01-26T20:28:31.051Z,89.05
2019-01-26T20:31:05.185Z,89.64
2019-01-26T20:33:36.356Z,90.56
2019-01-26T20:36:09.814Z,90.22
2019-01-26T20:38:45.130Z,90.25
2019-01-26T20:41:17.456Z,90.05
2019-01-26T20:43:48.720Z,89.54
2019-01-26T20:46:20.322Z,89.88
2019-01-26T20:48:55.094Z,89.52
2019-01-26T20:51:28.136Z,89.82
2019-01-26T20:54:02.210Z,89.65
2019-01-26T20:56:36.640Z,89.55
2019-01-26T20:59:09.266Z,89.88
2019-01-26T21:01:46.184Z,89.62
2019-01-26T21:04:21.837Z,89.30
2019-01-26T21:06:56.134Z,88.72
2019-01-26T21:09:28.610Z,88.38
2019-01-26T21:12:02.896Z,89.16
2019-01-26T21:14:37.098Z,88.90
2019-01-26T21:17:10.288Z,89.14
2019-01-26T21:19:44.300Z,89.25
2019-01-26T21:22:17.637Z,89.41
2019-01-26T21:24:48.946Z,89.54
2019-01-26T21:27:20.233Z,89.33
2019-01-26T21:29:52.230Z,89.27
2019-01-26T21:32:24.113Z,89.47
2019-01-26T21:34:56.272Z,89.10
2019-01-26T21:37:29.284Z,89.10
2019-01-26T21:40:03.252Z,89.28
2019-01-26T21:42:35.314Z,89.55
2019-01-26T21:45:08.811Z,89.44
2019-01-26T21:47:41.322Z,89.32
2019-01-26T21:50:16.133Z,89.32
2019-01-26T21:52:50.321Z,89.38
2019-01-26T21:55:24.367Z,89.88
2019-01-26T21:57:58.457Z,89.76
2019-01-26T22:00:33.989Z,89.71
2019-01-26T22:03:06.735Z,89.82
2019-01-26T22:05:40.567Z,89.88
2019-01-26T22:08:13.781Z,89.42
2019-01-26T22:10:45.445Z,89.85
2019-01-26T22:13:19.446Z,89.88
2019-01-26T22:15:53.446Z,89.49
2019-01-26T22:18:27.526Z,89.71
2019-01-26T22:21:02.212Z,89.41
2019-01-26T22:23:34.906Z,89.28
2019-01-26T22:26:08.297Z,89.30
2019-01-26T22:28:42.845Z,89.75
2019-01-26T22:31:14.050Z,90.09
2019-01-26T22:33:45.523Z,89.86
2019-01-26T22:36:24.823Z,89.79
2019-01-26T22:38:58.327Z,89.28
2019-01-26T22:41:31.949Z,89.50
2019-01-26T22:44:05.077Z,89.30
2019-01-26T22:46:38.543Z,89.04
2019-01-26T22:49:13.044Z,89.32
2019-01-26T22:51:45.649Z,89.48
2019-01-26T22:54:19.793Z,89.19
2019-01-26T22:56:52.807Z,89.14
2019-01-26T22:59:25.576Z,89.03
2019-01-26T23:01:59.222Z,88.88
2019-01-26T23:04:55.079Z,89.55
2019-01-26T23:07:55.794Z,89.44
2019-01-26T23:11:14.044Z,88.86
2019-01-26T23:14:16.143Z,89.51
2019-01-26T23:17:41.740Z,88.83
2019-01-26T23:20:57.308Z,88.63
2019-01-26T23:23:48.858Z,88.64
2019-01-26T23:27:05.298Z,88.52
2019-01-26T23:30:20.061Z,88.27
2019-01-26T23:32:53.324Z,88.62
2019-01-26T23:35:24.632Z,87.68
2019-01-26T23:37:59.990Z,87.13
2019-01-26T23:40:32.405Z,87.65
2019-01-26T23:43:05.990Z,87.36
2019-01-26T23:45:40.027Z,87.65
2019-01-26T23:48:13.278Z,87.71
2019-01-26T23:50:45.528Z,87.07
2019-01-26T23:53:18.741Z,87.24
2019-01-26T23:55:50.332Z,87.09
2019-01-26T23:58:25.039Z,87.51
